Flight Track Log - Related Links

Times and Time Zones

All times are in EDT time to prevent confusion due to time zone crossing. See the N23540 flight status page for this flight to view local times or setup timezone preferences in your user account.


Time Position Orientation Groundspeed Altitude Reporting Facility
EDT Latitude Longitude Course Direction KTS MPH feet Rate Location/Type
Fri 02:54:30 PM 35.6411 -105.1370 67° East 150 173 10,700  Level Albuquerque Center
Fri 02:55:30 PM 35.6489 -105.1140 242° Southwest 50 58 11,100 500 Climbing Albuquerque Center
Fri 02:56:30 PM 35.6411 -105.1320 78° East 16 18 11,700 400 Climbing Albuquerque Center
Fri 02:57:30 PM 35.6467 -105.0990 260° West 46 53 11,900 350 Climbing Albuquerque Center
Fri 02:58:30 PM 35.6431 -105.1250 226° Southwest 19 22 12,400 450 Climbing Albuquerque Center
Fri 02:59:30 PM 35.6267 -105.1460 231° Southwest 70 81 12,800 250 Climbing Albuquerque Center
Fri 03:00:30 PM 35.6064 -105.1770 235° Southwest 112 129 12,900 50 Climbing Albuquerque Center
Fri 03:01:30 PM 35.5842 -105.2160 232° Southwest 136 157 12,900  Level Albuquerque Center
Fri 03:02:30 PM 35.5597 -105.2550 232° Southwest 147 169 12,900  Level Albuquerque Center
Fri 03:03:30 PM 35.5353 -105.2940 234° Southwest 152 175 12,900  Level Albuquerque Center
Fri 03:04:30 PM 35.5172 -105.3250 237° Southwest 133 153 12,900  Level Albuquerque Center
Fri 03:05:30 PM 35.5011 -105.3560 239° Southwest 113 130 12,900 50 Level Albuquerque Center
Fri 03:06:30 PM 35.4847 -105.3890 235° Southwest 113 130 13,000  Climbing Albuquerque Center
Fri 03:07:30 PM 35.4606 -105.4310 231° Southwest 124 143 12,900 -50 Descending Albuquerque Center
Fri 03:08:30 PM 35.4400 -105.4620 224° Southwest 129 148 12,900  Level Albuquerque Center
Fri 03:09:30 PM 35.4114 -105.4960 223° Southwest 129 148 12,900  Level Albuquerque Center
Fri 03:10:30 PM 35.3889 -105.5220 221° Southwest 129 148 12,900  Level Albuquerque Center
Fri 03:11:30 PM 35.3642 -105.5480 228° Southwest 129 148 12,900  Level Albuquerque Center
Fri 03:12:30 PM 35.3439 -105.5760 226° Southwest 129 148 12,900  Level Albuquerque Center
Fri 03:13:30 PM 35.3214 -105.6050 227° Southwest 124 143 12,900  Level Albuquerque Center
Fri 03:14:30 PM 35.2967 -105.6380 234° Southwest 124 143 12,900  Level Albuquerque Center
Fri 03:15:30 PM 35.2783 -105.6690 231° Southwest 124 143 12,900  Level Albuquerque Center
Fri 03:16:30 PM 35.2558 -105.7030 228° Southwest 124 143 12,900  Level Albuquerque Center
Fri 03:17:31 PM 35.2353 -105.7310 229° Southwest 124 143 12,900  Level Albuquerque Center
Fri 03:18:30 PM 35.2108 -105.7650 224° Southwest 134 154 12,900  Level Albuquerque Center
Fri 03:19:24 PM 35.1842 -105.7960 228° Southwest 125 144 12,900  Level Albuquerque Center
Fri 03:20:30 PM 35.1617 -105.8270 214° Southwest 136 157 12,900  Level Albuquerque Center
Fri 03:20:49 PM 35.1472 -105.8390 235° Southwest 131 151 12,900  Level Albuquerque Center
Fri 03:21:30 PM 35.1369 -105.8570 221° Southwest 136 157 12,900  Level Albuquerque Center
Fri 03:22:30 PM 35.1122 -105.8830 228° Southwest 136 157 12,900  Level Albuquerque Center
Fri 03:23:30 PM 35.0875 -105.9170 222° Southwest 130 150 12,900 50 Level Albuquerque Center
Fri 03:24:30 PM 35.0650 -105.9420 221° Southwest 125 144 13,000  Climbing Albuquerque Center
Fri 03:25:30 PM 35.0381 -105.9710 221° Southwest 125 144 12,900  Descending Albuquerque Center
Fri 03:26:28 PM 35.0072 -106.0040 226° Southwest 127 146 13,000  Climbing Albuquerque Center
Fri 03:27:29 PM 34.9803 -106.0380 224° Southwest 132 152 12,900 -49 Descending Albuquerque Center
Fri 03:28:30 PM 34.9536 -106.0690 236° Southwest 130 150 12,900  Level Albuquerque Center
Fri 03:29:30 PM 34.9372 -106.0990 228° Southwest 125 144 12,900  Level Albuquerque Center
Fri 03:30:30 PM 34.9125 -106.1330 226° Southwest 125 144 12,900  Level Albuquerque Center
Fri 03:31:30 PM 34.8900 -106.1610 221° Southwest 125 144 12,900  Level Albuquerque Center
Fri 03:32:30 PM 34.8631 -106.1890 225° Southwest 125 144 12,900  Level Albuquerque Center
Fri 03:33:30 PM 34.8403 -106.2170 224° Southwest 125 144 12,900  Level Albuquerque Center
Fri 03:34:39 PM 34.8094 -106.2530 222° Southwest 117 135 12,900 48 Level Albuquerque Center
Fri 03:35:34 PM 34.7886 -106.2760 224° Southwest 119 137 13,000  Climbing Albuquerque Center
Fri 03:35:54 PM 34.7783 -106.2860 226° Southwest 13,000 -109 Level Albuquerque Center
Fri 03:36:29 PM 34.7619 -106.3070 235° Southwest 137 158 12,900  Descending Albuquerque Center
Fri 03:36:54 PM 34.7517 -106.3250 217° Southwest 143 165 13,000  Climbing Albuquerque Center
Fri 03:37:42 PM 34.7267 -106.3480 228° Southwest 141 162 12,900  Descending Albuquerque Center
Fri 03:38:48 PM 34.7019 -106.3810 215° Southwest 128 147 13,000  Climbing Albuquerque Center
Fri 03:39:49 PM 34.6708 -106.4070 225° Southwest 129 148 12,900  Descending Albuquerque Center
Fri 03:40:50 PM 34.6481 -106.4350 225° Southwest 116 133 13,000  Climbing Albuquerque Center
Fri 03:41:54 PM 34.6214 -106.4680 237° Southwest 140 161 12,900 -48 Descending Albuquerque Center
Fri 03:42:54 PM 34.5986 -106.5110 225° Southwest 152 175 12,900  Level Albuquerque Center
Fri 03:43:54 PM 34.5717 -106.5440 225° Southwest 152 175 12,900 50 Level Albuquerque Center
Fri 03:44:54 PM 34.5469 -106.5740 231° Southwest 135 155 13,000  Climbing Albuquerque Center
Fri 03:45:54 PM 34.5200 -106.6150 228° Southwest 140 161 12,900  Descending Albuquerque Center
Fri 03:46:54 PM 34.4953 -106.6480 217° Southwest 140 161 13,000  Climbing Albuquerque Center
Fri 03:47:54 PM 34.4642 -106.6760 225° Southwest 140 161 12,900  Descending Albuquerque Center
Fri 03:48:54 PM 34.4372 -106.7090 223° Southwest 140 161 13,000 50 Climbing Albuquerque Center
Fri 03:49:54 PM 34.4081 -106.7420 221° Southwest 145 167 13,000 50 Level Albuquerque Center
Fri 03:50:54 PM 34.3792 -106.7720 219° Southwest 145 167 13,100 -50 Climbing Albuquerque Center
Fri 03:51:54 PM 34.3478 -106.8030 210° Southwest 145 167 12,900 -100 Descending Albuquerque Center
Fri 03:52:54 PM 34.3147 -106.8260 188° South 145 167 12,900  Level Albuquerque Center
Fri 03:53:54 PM 34.2708 -106.8330 195° South 145 167 12,900 50 Level Albuquerque Center
Fri 03:54:54 PM 34.2311 -106.8460 178° South 151 174 13,000  Climbing Albuquerque Center
Fri 03:56:06 PM 34.1894 -106.8440 191° South 144 166 12,900 -45 Descending Albuquerque Center
Fri 03:57:06 PM 34.1542 -106.8520 183° South 132 152 12,900 50 Level Albuquerque Center
Fri 03:58:06 PM 34.1206 -106.8540 194° South 132 152 13,000  Climbing Albuquerque Center
Fri 03:59:06 PM 34.0853 -106.8650 193° South 127 146 12,900 50 Descending Albuquerque Center
Fri 04:00:06 PM 34.0497 -106.8750 189° South 127 146 13,100  Climbing Albuquerque Center
Fri 04:01:06 PM 34.0061 -106.8830 182° South 140 161 12,900 -100 Descending Albuquerque Center
Fri 04:02:06 PM 33.9644 -106.8850 197° South 153 176 12,900  Level Albuquerque Center
Fri 04:03:06 PM 33.9289 -106.8980 189° South 153 176 12,900  Level Albuquerque Center
Fri 04:04:06 PM 33.8892 -106.9060 186° South 142 163 12,900 50 Level Albuquerque Center
Fri 04:05:06 PM 33.8517 -106.9110 208° Southwest 142 163 13,000 50 Climbing Albuquerque Center
Fri 04:06:06 PM 33.8206 -106.9310 199° South 142 163 13,000 -50 Level Albuquerque Center
Fri 04:07:06 PM 33.7850 -106.9460 208° Southwest 142 163 12,900 -50 Descending Albuquerque Center
Fri 04:08:06 PM 33.7517 -106.9670 212° Southwest 142 163 12,900 50 Level Albuquerque Center
Fri 04:09:06 PM 33.7228 -106.9890 206° Southwest 131 151 13,000 50 Climbing Albuquerque Center
Fri 04:10:06 PM 33.6894 -107.0090 211° Southwest 136 157 13,000 -50 Level Albuquerque Center
Fri 04:11:06 PM 33.6581 -107.0320 206° Southwest 136 157 12,900 -50 Descending Albuquerque Center
Fri 04:12:06 PM 33.6289 -107.0490 212° Southwest 136 157 12,900  Level Albuquerque Center
Fri 04:13:06 PM 33.6019 -107.0690 207° Southwest 131 151 12,900 100 Level Albuquerque Center
Fri 04:14:06 PM 33.5686 -107.0890 208° Southwest 131 151 13,100  Climbing Albuquerque Center
Fri 04:15:06 PM 33.5372 -107.1090 208° Southwest 131 151 12,900 -100 Descending Albuquerque Center
Fri 04:16:06 PM 33.5061 -107.1290 204° Southwest 131 151 12,900 50 Level Albuquerque Center
Fri 04:17:06 PM 33.4728 -107.1470 203° Southwest 136 157 13,000  Climbing Albuquerque Center
Fri 04:18:06 PM 33.4394 -107.1640 221° Southwest 136 157 12,900 -50 Descending Albuquerque Center
Fri 04:19:06 PM 33.4122 -107.1920 212° Southwest 136 157 12,900 50 Level Albuquerque Center
Fri 04:20:06 PM 33.3831 -107.2140 208° Southwest 131 151 13,000  Climbing Albuquerque Center
Fri 04:21:06 PM 33.3517 -107.2340 216° Southwest 126 145 12,900 -50 Descending Albuquerque Center
Fri 04:22:06 PM 33.3289 -107.2540 202° Southwest 120 138 12,900  Level Albuquerque Center
Fri 04:23:06 PM 33.2975 -107.2690 221° Southwest 120 138 12,900  Level Albuquerque Center
Fri 04:24:06 PM 33.2706 -107.2970 230° Southwest 125 144 12,900  Level Albuquerque Center
Fri 04:25:06 PM 33.2517 -107.3240 225° Southwest 119 137 12,900 50 Level Albuquerque Center
Fri 04:26:06 PM 33.2331 -107.3460 228° Southwest 114 131 13,000  Climbing Albuquerque Center
Fri 04:27:06 PM 33.2142 -107.3710 235° Southwest 109 125 12,900  Descending Albuquerque Center
Fri 04:28:06 PM 33.1994 -107.3960 235° Southwest 104 120 13,000 50 Climbing Albuquerque Center
Fri 04:29:06 PM 33.1850 -107.4210 239° Southwest 104 120 13,000 -50 Level Albuquerque Center
Fri 04:30:06 PM 33.1703 -107.4500 244° Southwest 104 120 12,900 -50 Descending Albuquerque Center
Fri 04:31:06 PM 33.1578 -107.4800 237° Southwest 104 120 12,900 50 Level Albuquerque Center
Fri 04:32:06 PM 33.1453 -107.5030 216° Southwest 99 114 13,000  Climbing Albuquerque Center
Fri 04:33:06 PM 33.1203 -107.5250 221° Southwest 94 108 12,900 50 Descending Albuquerque Center
Fri 04:34:06 PM 33.0972 -107.5490 223° Southwest 111 128 13,100 100 Climbing Albuquerque Center
Fri 04:35:06 PM 33.0764 -107.5720 227° Southwest 111 128 13,100 -100 Level Albuquerque Center
Fri 04:36:06 PM 33.0575 -107.5960 223° Southwest 111 128 12,900  Descending Albuquerque Center
Fri 04:37:06 PM 33.0367 -107.6190 224° Southwest 106 122 13,100  Climbing Albuquerque Center
Fri 04:38:06 PM 33.0178 -107.6410 228° Southwest 101 116 12,900 -150 Descending Albuquerque Center
Fri 04:39:06 PM 33.0011 -107.6630 224° Southwest 95 109 12,800 50 Descending Albuquerque Center
Fri 04:40:06 PM 32.9864 -107.6800 229° Southwest 89 102 13,000 50 Climbing Albuquerque Center
Fri 04:41:06 PM 32.9717 -107.7000 220° Southwest 89 102 12,900 -50 Descending Albuquerque Center
Fri 04:42:06 PM 32.9569 -107.7150 225° Southwest 89 102 12,900 -150 Level Albuquerque Center
Fri 04:43:06 PM 32.9444 -107.7300 228° Southwest 79 91 12,600 -200 Descending Albuquerque Center
Fri 04:44:06 PM 32.9339 -107.7440 233° Southwest 67 77 12,500 50 Descending Albuquerque Center
Fri 04:45:06 PM 32.9256 -107.7570 236° Southwest 62 71 12,700 100 Climbing Albuquerque Center
Fri 04:46:06 PM 32.9172 -107.7720 223° Southwest 62 71 12,700 100 Level Albuquerque Center
Fri 04:47:06 PM 32.9047 -107.7860 236° Southwest 62 71 12,900 100 Climbing Albuquerque Center
Fri 04:48:06 PM 32.8919 -107.8090 228° Southwest 68 78 12,900  Level Albuquerque Center
Fri 04:49:06 PM 32.8753 -107.8310 228° Southwest 80 92 12,900  Level Albuquerque Center
Fri 04:50:06 PM 32.8586 -107.8530 228° Southwest 90 104 12,900  Level Albuquerque Center
Fri 04:51:06 PM 32.8397 -107.8780 229° Southwest 100 115 12,900  Level Albuquerque Center
Fri 04:52:06 PM 32.8208 -107.9040 231° Southwest 100 115 12,900  Level Albuquerque Center
Fri 04:53:06 PM 32.8019 -107.9320 225° Southwest 105 121 12,900 50 Level Albuquerque Center
Fri 04:54:06 PM 32.7831 -107.9540 230° Southwest 105 121 13,000 50 Climbing Albuquerque Center
Fri 04:55:06 PM 32.7642 -107.9810 230° Southwest 105 121 13,000 -50 Level Albuquerque Center
Fri 04:56:06 PM 32.7472 -108.0050 231° Southwest 105 121 12,900 -50 Descending Albuquerque Center
Fri 04:57:06 PM 32.7303 -108.0300 227° Southwest 105 121 12,900  Level Albuquerque Center
Fri 04:58:06 PM 32.7114 -108.0540 237° Southwest 105 121 12,900  Level Albuquerque Center
Fri 04:59:06 PM 32.6967 -108.0810 234° Southwest 105 121 12,900 50 Level Albuquerque Center
Fri 05:00:06 PM 32.6800 -108.1080 227° Southwest 105 121 13,000 50 Climbing Albuquerque Center
Fri 05:01:06 PM 32.6589 -108.1350 240° Southwest 105 121 13,000  Level Albuquerque Center
Fri 05:02:06 PM 32.6442 -108.1650 238° Southwest 105 121 13,000 -50 Level Albuquerque Center
Fri 05:03:06 PM 32.6272 -108.1970 245° Southwest 110 127 12,900 -50 Descending Albuquerque Center
Fri 05:04:06 PM 32.6144 -108.2290 251° West 115 132 12,900  Level Albuquerque Center
Fri 05:05:06 PM 32.6058 -108.2580 245° Southwest 110 127 12,900  Level Albuquerque Center
Fri 05:06:06 PM 32.5953 -108.2850 247° West 105 121 12,900  Level Albuquerque Center
Fri 05:07:06 PM 32.5867 -108.3090 246° West 100 115 12,900  Level Albuquerque Center
Fri 05:08:06 PM 32.5781 -108.3320 248° West 84 97 12,900 50 Level Albuquerque Center
Fri 05:09:06 PM 32.5717 -108.3510 238° Southwest 73 84 13,000  Climbing Albuquerque Center
Fri 05:10:06 PM 32.5611 -108.3710 256° West 73 84 12,900 -100 Descending Albuquerque Center
Fri 05:11:06 PM 32.5569 -108.3910 250° West 73 84 12,800  Descending Albuquerque Center
Fri 05:12:06 PM 32.5503 -108.4120 248° West 73 84 12,900 50 Climbing Albuquerque Center
Fri 05:13:06 PM 32.5417 -108.4370 251° West 73 84 12,900 -50 Level Albuquerque Center
Fri 05:14:06 PM 32.5331 -108.4660 256° West 78 90 12,800  Descending Albuquerque Center
Fri 05:15:06 PM 32.5267 -108.4960 251° West 89 102 12,900 50 Climbing Albuquerque Center
Fri 05:16:06 PM 32.5181 -108.5250 255° West 89 102 12,900  Level Albuquerque Center
Fri 05:17:06 PM 32.5114 -108.5550 241° Southwest 89 102 12,900  Level Albuquerque Center
Fri 05:18:06 PM 32.4986 -108.5820 246° West 89 102 12,900  Level Albuquerque Center
Fri 05:19:06 PM 32.4858 -108.6160 242° Southwest 94 108 12,900  Level Albuquerque Center
Fri 05:20:07 PM 32.4708 -108.6500 251° West 112 129 12,900  Level Albuquerque Center
Fri 05:21:06 PM 32.4578 -108.6940 249° West 132 152 12,900  Level Albuquerque Center
Fri 05:22:06 PM 32.4450 -108.7330 250° West 137 158 12,900 150 Level Albuquerque Center
Fri 05:23:06 PM 32.4342 -108.7680 243° Southwest 126 145 13,200 100 Climbing Albuquerque Center
Fri 05:24:06 PM 32.4211 -108.7990 247° West 121 139 13,100  Descending Albuquerque Center
Fri 05:25:06 PM 32.4083 -108.8340 246° West 115 132 13,200 50 Climbing Albuquerque Center
Fri 05:26:06 PM 32.3975 -108.8630 242° Southwest 110 127 13,200  Level Albuquerque Center
Fri 05:27:06 PM 32.3847 -108.8920 246° West 110 127 13,200  Level Albuquerque Center
Fri 05:28:06 PM 32.3739 -108.9210 256° West 110 127 13,200 -50 Level Albuquerque Center
Fri 05:29:06 PM 32.3672 -108.9530 254° West 110 127 13,100  Descending Albuquerque Center
Fri 05:30:06 PM 32.3606 -108.9800 248° West 104 120 13,200 50 Climbing Albuquerque Center
Fri 05:31:06 PM 32.3497 -109.0120 252° West 104 120 13,200  Level Albuquerque Center
Fri 05:32:06 PM 32.3408 -109.0440 251° West 104 120 13,200  Level Albuquerque Center
Fri 05:33:06 PM 32.3322 -109.0730 250° West 104 120 13,200 -50 Level Albuquerque Center
Fri 05:34:06 PM 32.3233 -109.1020 247° West 104 120 13,100  Descending Albuquerque Center
Fri 05:35:06 PM 32.3125 -109.1320 247° West 104 120 13,200 50 Climbing Albuquerque Center
Fri 05:36:06 PM 32.3039 -109.1560 252° West 97 112 13,200  Level Albuquerque Center
Fri 05:37:06 PM 32.2950 -109.1880 245° Southwest 97 112 13,200  Level Albuquerque Center
Fri 05:38:06 PM 32.2797 -109.2270 249° West 111 128 13,200 -50 Level Albuquerque Center
Fri 05:39:06 PM 32.2689 -109.2610 238° Southwest 118 136 13,100  Descending Albuquerque Center
Fri 05:40:06 PM 32.2536 -109.2900 236° Southwest 118 136 13,200 50 Climbing Albuquerque Center
Fri 05:41:06 PM 32.2386 -109.3160 240° Southwest 113 130 13,200  Level Albuquerque Center
Fri 05:42:06 PM 32.2214 -109.3510 239° Southwest 115 132 13,200  Level Albuquerque Center
Fri 05:43:06 PM 32.2019 -109.3890 242° Southwest 126 145 13,200  Level Albuquerque Center
Fri 05:44:06 PM 32.1847 -109.4280 242° Southwest 136 157 13,200  Level Albuquerque Center
Fri 05:45:06 PM 32.1672 -109.4670 246° West 136 157 13,200  Level Albuquerque Center
Fri 05:46:06 PM 32.1542 -109.5010 239° Southwest 136 157 13,200 -50 Level Albuquerque Center
Fri 05:47:06 PM 32.1392 -109.5300 240° Southwest 124 143 13,100  Descending Albuquerque Center
Fri 05:48:06 PM 32.1261 -109.5570 240° Southwest 110 127 13,200 50 Climbing Albuquerque Center
Fri 05:49:06 PM 32.1108 -109.5880 240° Southwest 100 115 13,200  Level Albuquerque Center
Fri 05:50:06 PM 32.0958 -109.6190 248° West 100 115 13,200 -50 Level Albuquerque Center
Fri 05:51:06 PM 32.0847 -109.6510 246° West 105 121 13,100 -250 Descending Albuquerque Center
Fri 05:52:06 PM 32.0717 -109.6850 239° Southwest 110 127 12,700 -300 Descending Albuquerque Center
Fri 05:53:06 PM 32.0519 -109.7240 239° Southwest 122 140 12,500 -250 Descending Albuquerque Center
Fri 05:54:06 PM 32.0325 -109.7620 259° West 136 157 12,200 -250 Descending Albuquerque Center
Fri 05:55:06 PM 32.0253 -109.8060 259° West 141 162 12,000 -350 Descending Albuquerque Center
Fri 05:56:06 PM 32.0183 -109.8480 256° West 136 157 11,500 -400 Descending Albuquerque Center
Fri 05:57:06 PM 32.0089 -109.8940 257° West 136 157 11,200 -150 Descending Albuquerque Center
Fri 05:58:06 PM 32.0019 -109.9300 257° West 141 162 11,200 -50 Level Albuquerque Center
Fri 05:59:06 PM 31.9950 -109.9640 204° Southwest 127 146 11,100 -300 Descending Albuquerque Center
Fri 06:00:06 PM 31.9633 -109.9810 215° Southwest 110 127 10,600 -350 Descending Albuquerque Center
Fri 06:01:06 PM 31.9292 -110.0090 219° Southwest 135 155 10,400 -200 Descending Albuquerque Center
Fri 06:02:06 PM 31.8994 -110.0370 224° Southwest 147 169 10,200 -300 Descending Albuquerque Center
Fri 06:03:06 PM 31.8694 -110.0710 224° Southwest 152 175 9,800 -400 Descending Albuquerque Center

Login

Don't have an account? Register now (free) for customized features, flight alerts, and more!